Pigeon Forge, Tennessee
Current Conditions -  °F | °C
As of 7:15 AM on Monday 24 Nov 2014 (Local Time) from KGKT Reporting Station
Few Clouds Few Clouds  
Wind Chill: 63°   Ceiling: Unl
Heat Index: 63°   Visibility: 10mi
Dew Point: 45°   Wind: 7mph
Humidity: 52%   Direction: 230°SW
Pressure: 29.65"   Gusts: NA
Location:  35.79°N, 83.56°W
Report Text: KGKT 241215Z AUTO 23006KT 10SM FEW055 17/07 A2965 RMK
Loading
Personal Weather Stations






























Interactive Weather Map New forecast layout! Learn more

10-Day Weather Forecast

Advertisements
Track Severe Weather on mobile